Flight Track Log - Related Links

Times and Time Zones

All times are in EDT time to prevent confusion due to time zone crossing. See the DCM1130 flight status page for this flight to view local times or setup timezone preferences in your user account.

Time Position Orientation Groundspeed Altitude Reporting Facility
EDT Latitude Longitude Course Direction KTS MPH feet Rate Location/Type
Wed 11:28:05 AM 37.4161 -79.9483 46° Northeast 252 290 6,500  Level Washington Center
Wed 11:29:05 AM 37.4686 -79.8806 46° Northeast 264 304 9,000 2,231 Climbing Washington Center
Wed 11:30:06 AM 37.5203 -79.7842 56° Northeast 287 330 11,000 2,132 Climbing Washington Center
Wed 11:31:06 AM 37.5800 -79.6825 53° Northeast 321 369 13,300 1,950 Climbing Washington Center
Wed 11:32:06 AM 37.6400 -79.5756 55° Northeast 361 415 14,900 915 Climbing Washington Center
Wed 11:33:04 AM 37.7044 -79.4556 56° Northeast 401 461 15,100  Climbing Washington Center
Wed 11:34:05 AM 37.7703 -79.3461 53° Northeast 413 475 14,900 -98 Descending Washington Center
Wed 11:35:06 AM 37.8389 -79.2231 55° Northeast 425 489 14,900 504 Level Washington Center
Wed 11:36:04 AM 37.9197 -79.0956 51° Northeast 420 483 15,900 1,220 Climbing Washington Center
Wed 11:37:04 AM 38.0200 -79.0211 30° Northeast 415 478 17,300 1,488 Climbing Washington Center
Wed 11:38:05 AM 38.1264 -78.9414 31° Northeast 426 490 18,900 738 Climbing Washington Center
Wed 11:39:06 AM 38.2331 -78.8642 30° Northeast 436 502 18,800 -1,059 Descending Washington Center
Wed 11:40:04 AM 38.3203 -78.7939 32° Northeast 425 489 16,800 -2,017 Descending Washington Center
Wed 11:41:05 AM 38.4183 -78.7161 42° Northeast 418 481 14,800 -2,033 Descending Washington Center
Wed 11:42:05 AM 38.5100 -78.6403 33° Northeast 406 467 12,700 -2,033 Descending Washington Center
Wed 11:43:06 AM 38.5908 -78.5744 32° Northeast 373 429 10,700 -2,067 Descending Washington Center
Wed 11:44:04 AM 38.6675 -78.5111 33° Northeast 329 379 8,600 -1,373 Descending Washington Center
Wed 11:45:04 AM 38.7356 -78.4472 36° Northeast 302 348 8,000 -298 Descending Washington Center
Wed 11:46:05 AM 38.8017 -78.3886 35° Northeast 292 336 8,000  Level Washington Center
Wed 11:47:05 AM 38.8656 -78.3269 37° Northeast 292 336 8,000  Level Washington Center
Wed 11:48:06 AM 38.9336 -78.2656 35° Northeast 292 336 8,000 -202 Level Washington Center
Wed 11:49:04 AM 39.0017 -78.2039 35° Northeast 297 342 7,600 -504 Descending Washington Center
Wed 11:50:05 AM 39.0656 -78.1447 36° Northeast 292 336 7,000 -295 Descending Washington Center
Wed 11:51:06 AM 39.1294 -78.0881 35° Northeast 287 330 7,000  Level Washington Center
Wed 11:52:04 AM 39.1931 -78.0286 36° Northeast 287 330 7,000  Level Washington Center
Wed 11:53:41 AM 39.2667 -77.9000 53° Northeast 288 331 7,000 -76 Level Potomac TRACON
Wed 11:54:41 AM 39.3000 -77.8167 63° Northeast 283 326 6,800 -600 Descending Potomac TRACON
Wed 11:55:41 AM 39.3333 -77.7167 67° East 283 326 5,800 -842 Descending Potomac TRACON
Wed 11:56:35 AM 39.3500 -77.6500 72° East 279 321 5,200 -421 Descending Potomac TRACON
Wed 11:57:35 AM 39.3833 -77.5667 63° Northeast 270 311 5,000 -105 Descending Potomac TRACON
Wed 11:58:29 AM 39.4167 -77.4667 67° East 271 312 5,000  Level Potomac TRACON
Wed 11:59:29 AM 39.4500 -77.3833 63° Northeast 269 310 5,000  Level Potomac TRACON
Wed 12:00:29 PM 39.4500 -77.2833 90° East 268 308 5,000  Level Potomac TRACON
Wed 12:01:30 PM 39.4667 -77.1833 78° East 268 308 5,000  Level Potomac TRACON
Wed 12:02:24 PM 39.4667 -77.1000 90° East 270 311 5,000  Level Potomac TRACON
Wed 12:03:18 PM 39.4667 -77.0167 90° East 271 312 5,000 -211 Level Potomac TRACON
Wed 12:04:18 PM 39.4667 -76.9167 90° East 268 308 4,600 -476 Descending Potomac TRACON
Wed 12:05:24 PM 39.4667 -76.8167 90° East 260 299 4,000 -286 Descending Potomac TRACON
Wed 12:06:24 PM 39.4500 -76.7333 104° East 255 293 4,000 -157 Level Potomac TRACON
Wed 12:07:19 PM 39.4167 -76.6500 117° Southeast 259 298 3,700 -678 Descending Potomac TRACON
Wed 12:08:19 PM 39.3833 -76.5833 123° Southeast 221 254 2,700 -950 Descending Potomac TRACON
Wed 12:09:19 PM 39.3667 -76.5167 108° East 201 231 1,800 -600 Descending Potomac TRACON
Wed 12:10:19 PM 39.3333 -76.4667 131° Southeast 181 208 1,500 -200 Descending Potomac TRACON
Wed 12:11:19 PM 39.3000 -76.4333 142° Southeast 167 192 1,400 -365 Descending Potomac TRACON
Wed 12:12:14 PM 39.3000 -76.3833 90° East 160 184 800 -655 Descending Potomac TRACON

Login

Don't have an account? Register now (free) for customized features, flight alerts, and more!